Time;durP1;ratioP1;P1;durP2;ratioP2;P2;SDS_P1;SDS_P2;PMS_P1;PMS_P2;Temp;Humidity;BMP_temperature;BMP_pressure;BME280_temperature;BME280_humidity;BME280_pressure;Samples;Min_cycle;Max_cycle;Signal;HPM_P1;HPM_P2
2022/11/17 00:00:40;;;;;;;5.30;3.07;;;11.30;99.90;;;;;;5030392;28;20462;-72
2022/11/17 00:03:07;;;;;;;4.10;2.83;;;11.20;99.90;;;;;;5029357;28;20463;-72
2022/11/17 00:05:34;;;;;;;7.00;3.20;;;11.30;99.90;;;;;;5012867;28;20452;-71
2022/11/17 00:08:00;;;;;;;5.73;3.47;;;11.30;99.90;;;;;;5010652;28;20444;-72
2022/11/17 00:10:25;;;;;;;6.63;2.77;;;11.20;99.90;;;;;;5027347;28;20444;-72
2022/11/17 00:15:36;;;;;;;3.97;2.50;;;11.20;99.90;;;;;;5046884;28;20292;-71
2022/11/17 00:23:45;;;;;;;2.33;2.20;;;11.20;99.90;;;;;;5047919;28;20486;-72
2022/11/17 00:26:20;;;;;;;3.30;3.00;;;11.20;99.90;;;;;;5033483;28;20459;-71
2022/11/17 00:28:46;;;;;;;4.27;3.87;;;11.20;99.90;;;;;;5060056;28;20486;-72
2022/11/17 00:34:03;;;;;;;3.53;2.70;;;11.10;99.90;;;;;;5046971;28;20447;-72
2022/11/17 00:36:34;;;;;;;5.27;2.80;;;11.10;99.90;;;;;;5049406;28;20596;-72
2022/11/17 00:39:00;;;;;;;10.27;3.43;;;11.10;99.90;;;;;;5042496;28;21111;-72
2022/11/17 00:41:25;;;;;;;5.03;3.17;;;11.10;99.90;;;;;;5044936;28;20554;-72
2022/11/17 00:43:51;;;;;;;3.00;2.50;;;11.10;99.90;;;;;;5031821;28;20225;-72
2022/11/17 00:46:17;;;;;;;3.53;2.90;;;11.00;99.90;;;;;;5034861;28;20220;-71
2022/11/17 00:48:42;;;;;;;4.40;2.77;;;11.00;99.90;;;;;;5044493;28;20224;-71
2022/11/17 00:51:08;;;;;;;3.73;2.57;;;11.00;99.90;;;;;;5020278;28;20228;-71
2022/11/17 00:53:40;;;;;;;4.57;3.20;;;11.00;99.90;;;;;;5061924;28;20240;-72
2022/11/17 00:56:33;;;;;;;4.53;2.60;;;11.00;99.90;;;;;;5029822;28;20768;-72
2022/11/17 00:59:43;;;;;;;4.40;2.23;;;11.00;99.90;;;;;;5031231;28;20470;-72
2022/11/17 01:02:19;;;;;;;2.93;2.30;;;11.00;99.90;;;;;;5024022;28;20464;-71
2022/11/17 01:05:19;;;;;;;3.80;2.10;;;10.90;99.90;;;;;;5030734;28;20459;-72
2022/11/17 01:07:45;;;;;;;4.57;2.67;;;10.90;99.90;;;;;;5055584;28;20474;-72
2022/11/17 01:10:12;;;;;;;3.90;2.37;;;10.90;99.90;;;;;;5047896;28;20558;-72
2022/11/17 01:12:38;;;;;;;2.53;2.10;;;10.90;99.90;;;;;;5051681;28;20460;-71
2022/11/17 01:15:04;;;;;;;7.90;2.77;;;10.90;99.90;;;;;;5051497;28;20456;-72
2022/11/17 01:17:30;;;;;;;3.50;2.30;;;10.80;99.90;;;;;;5019915;28;20479;-72
2022/11/17 01:19:55;;;;;;;4.90;2.30;;;10.90;99.90;;;;;;5031449;28;20517;-71
2022/11/17 01:22:21;;;;;;;4.20;2.67;;;10.90;99.90;;;;;;5032482;28;20265;-72
2022/11/17 01:24:47;;;;;;;4.53;2.20;;;10.90;99.90;;;;;;5045948;28;20235;-72
2022/11/17 01:27:12;;;;;;;3.43;2.77;;;10.80;99.90;;;;;;5038837;28;20225;-71
2022/11/17 01:29:38;;;;;;;3.40;2.60;;;10.80;99.90;;;;;;5010797;28;20644;-72
2022/11/17 01:32:04;;;;;;;8.93;2.93;;;10.80;99.90;;;;;;5020060;28;20217;-72
2022/11/17 01:34:29;;;;;;;3.20;2.80;;;10.70;99.90;;;;;;5039429;28;20227;-72
2022/11/17 01:39:39;;;;;;;4.13;2.10;;;10.70;99.90;;;;;;5047412;28;20224;-71
2022/11/17 01:42:12;;;;;;;3.90;2.70;;;10.70;99.90;;;;;;5030343;28;20443;-71
2022/11/17 01:44:50;;;;;;;3.30;2.30;;;10.70;99.90;;;;;;5029773;28;20303;-71
2022/11/17 01:47:20;;;;;;;3.33;2.27;;;10.70;99.90;;;;;;5028672;28;21031;-71
2022/11/17 01:49:48;;;;;;;2.63;2.03;;;10.70;99.90;;;;;;5029636;28;20505;-71
2022/11/17 01:52:14;;;;;;;3.10;2.37;;;10.70;99.90;;;;;;5031196;28;20459;-72
2022/11/17 01:54:42;;;;;;;4.40;2.63;;;10.70;99.90;;;;;;5031701;28;20464;-70
2022/11/17 01:57:18;;;;;;;3.37;2.10;;;10.70;99.90;;;;;;5045458;28;20471;-71
2022/11/17 02:00:10;;;;;;;4.83;2.77;;;10.70;99.90;;;;;;5045080;28;20458;-71
2022/11/17 02:02:38;;;;;;;2.70;2.50;;;10.60;99.90;;;;;;5027592;28;20495;-71
2022/11/17 02:05:10;;;;;;;5.70;3.10;;;10.60;99.90;;;;;;5045017;28;20540;-71
2022/11/17 02:07:38;;;;;;;4.40;2.50;;;10.60;99.90;;;;;;5027899;28;20472;-71
2022/11/17 02:10:05;;;;;;;2.20;2.10;;;10.60;99.90;;;;;;5029050;28;20459;-72
2022/11/17 02:12:32;;;;;;;2.47;2.27;;;10.60;99.90;;;;;;5029091;28;21051;-72
2022/11/17 02:14:59;;;;;;;2.33;2.13;;;10.60;99.90;;;;;;5031201;28;20542;-72
2022/11/17 02:17:31;;;;;;;3.50;2.37;;;10.60;99.90;;;;;;5030233;28;20513;-72
2022/11/17 02:20:11;;;;;;;6.60;2.60;;;10.60;99.90;;;;;;5028258;28;20563;-72
2022/11/17 02:22:54;;;;;;;2.83;2.00;;;10.60;99.90;;;;;;5021521;28;20877;-72
2022/11/17 02:25:20;;;;;;;3.33;1.83;;;10.70;99.90;;;;;;5045594;28;20543;-72
2022/11/17 02:27:58;;;;;;;3.77;2.40;;;10.70;99.90;;;;;;5033321;28;20550;-71
2022/11/17 02:30:29;;;;;;;3.27;2.73;;;10.70;99.90;;;;;;5028415;28;20227;-72
2022/11/17 02:33:22;;;;;;;3.00;2.73;;;10.70;99.90;;;;;;5028012;28;20474;-72
2022/11/17 02:36:08;;;;;;;3.47;3.17;;;10.70;99.90;;;;;;5028666;28;20984;-71
2022/11/17 02:38:33;;;;;;;4.70;2.87;;;10.70;99.90;;;;;;5012637;28;20447;-71
2022/11/17 02:41:12;;;;;;;3.50;3.17;;;10.70;99.90;;;;;;5025175;28;21066;-72
2022/11/17 02:44:11;;;;;;;4.87;2.97;;;10.70;99.90;;;;;;5044147;28;20227;-72
2022/11/17 02:46:49;;;;;;;5.23;2.60;;;10.70;99.90;;;;;;5027687;28;20874;-71
2022/11/17 02:49:33;;;;;;;2.93;2.63;;;10.70;99.90;;;;;;5028083;28;20802;-72
2022/11/17 02:52:00;;;;;;;3.00;2.60;;;10.70;99.90;;;;;;5029196;28;20452;-72
2022/11/17 02:54:28;;;;;;;3.47;2.60;;;10.70;99.90;;;;;;5018560;28;20463;-72
2022/11/17 02:56:54;;;;;;;3.10;2.90;;;10.70;99.90;;;;;;5019936;28;20467;-72
2022/11/17 02:59:24;;;;;;;3.20;2.67;;;10.70;99.90;;;;;;5026958;28;20470;-72
2022/11/17 03:02:19;;;;;;;5.77;2.47;;;10.70;99.90;;;;;;5029079;28;20228;-71
2022/11/17 03:05:03;;;;;;;3.03;2.83;;;10.70;99.90;;;;;;5026574;28;20463;-71
2022/11/17 03:07:49;;;;;;;6.83;2.40;;;10.70;99.90;;;;;;5026364;28;20528;-72
2022/11/17 03:10:32;;;;;;;2.90;2.53;;;10.70;99.90;;;;;;5013407;28;21004;-71
2022/11/17 03:13:24;;;;;;;3.70;2.93;;;10.70;99.90;;;;;;5022804;28;20471;-72
2022/11/17 03:15:58;;;;;;;3.90;3.43;;;10.70;99.90;;;;;;5021202;28;20542;-71
2022/11/17 03:18:42;;;;;;;3.23;2.90;;;10.70;99.90;;;;;;5028942;28;20798;-72
2022/11/17 03:21:13;;;;;;;2.90;2.60;;;10.70;99.90;;;;;;5025731;28;20530;-71
2022/11/17 03:23:48;;;;;;;3.10;2.70;;;10.70;99.90;;;;;;5013611;28;20839;-71
2022/11/17 03:26:28;;;;;;;3.00;2.43;;;10.70;99.90;;;;;;5046098;28;20888;-71
2022/11/17 03:28:55;;;;;;;5.37;3.07;;;10.60;99.90;;;;;;5029270;28;20454;-71
2022/11/17 03:31:23;;;;;;;2.93;2.07;;;10.60;99.90;;;;;;5029513;28;20463;-73
2022/11/17 03:33:49;;;;;;;2.33;2.13;;;10.60;99.90;;;;;;5026594;28;20448;-71
2022/11/17 03:36:19;;;;;;;2.53;2.33;;;10.60;99.90;;;;;;5011148;28;20459;-72
2022/11/17 03:38:57;;;;;;;2.23;1.90;;;10.60;99.90;;;;;;5026643;28;20467;-71
2022/11/17 03:41:24;;;;;;;2.67;2.40;;;10.60;99.90;;;;;;5026254;28;20475;-71
2022/11/17 03:43:52;;;;;;;3.73;2.83;;;10.50;99.90;;;;;;5027120;28;20482;-71
2022/11/17 03:46:20;;;;;;;3.63;2.70;;;10.50;99.90;;;;;;5028153;28;20459;-71
2022/11/17 03:48:52;;;;;;;3.83;2.43;;;10.40;99.90;;;;;;5046187;28;20529;-72
2022/11/17 03:51:22;;;;;;;3.20;2.33;;;10.40;99.90;;;;;;5050337;28;20459;-72
2022/11/17 03:53:48;;;;;;;3.00;2.40;;;10.40;99.90;;;;;;5032450;28;20504;-71
2022/11/17 03:56:20;;;;;;;3.43;2.27;;;10.40;99.90;;;;;;5031392;28;20993;-72
2022/11/17 03:59:09;;;;;;;2.67;2.40;;;10.40;99.90;;;;;;5045091;28;20522;-72
2022/11/17 04:01:36;;;;;;;2.40;2.20;;;10.40;99.90;;;;;;5016006;28;20542;-71
2022/11/17 04:04:01;;;;;;;1.83;1.73;;;10.30;99.90;;;;;;5031467;28;20466;-72
2022/11/17 04:06:27;;;;;;;2.37;2.03;;;10.30;99.90;;;;;;5014817;28;20460;-71
2022/11/17 04:08:53;;;;;;;2.17;2.03;;;10.30;99.90;;;;;;5031887;28;20228;-71
2022/11/17 04:16:47;;;;;;;2.70;2.20;;;10.20;99.90;;;;;;5045247;28;20495;-71
2022/11/17 04:19:13;;;;;;;1.73;1.57;;;10.30;99.90;;;;;;5029950;28;20495;-72
2022/11/17 04:21:38;;;;;;;3.33;2.47;;;10.20;99.90;;;;;;5049830;28;20216;-70
2022/11/17 04:24:05;;;;;;;2.23;1.83;;;10.30;99.90;;;;;;5027469;28;20229;-71
2022/11/17 04:29:14;;;;;;;2.93;1.80;;;10.30;99.90;;;;;;5030107;28;20494;-72
2022/11/17 04:31:40;;;;;;;1.97;1.70;;;10.30;99.90;;;;;;5031553;28;20486;-70
2022/11/17 04:34:06;;;;;;;3.50;2.30;;;10.30;99.90;;;;;;5036815;28;20666;-71
2022/11/17 04:36:42;;;;;;;1.47;1.37;;;10.30;99.90;;;;;;5032561;28;20224;-71
2022/11/17 04:39:08;;;;;;;2.40;1.90;;;10.30;99.90;;;;;;5031595;28;20462;-71
2022/11/17 04:41:53;;;;;;;2.90;1.60;;;10.30;99.90;;;;;;5047710;28;20463;-71
2022/11/17 04:44:21;;;;;;;2.97;1.90;;;10.30;99.90;;;;;;5045894;28;21025;-71
2022/11/17 04:46:47;;;;;;;2.00;1.77;;;10.30;99.90;;;;;;5015092;28;20472;-70
2022/11/17 04:49:15;;;;;;;2.90;2.10;;;10.30;99.90;;;;;;5031383;28;20455;-72
2022/11/17 04:51:41;;;;;;;4.10;2.10;;;10.30;99.90;;;;;;5031964;28;20221;-71
2022/11/17 04:54:09;;;;;;;4.03;1.90;;;10.30;99.90;;;;;;5033738;28;20459;-72
2022/11/17 04:56:35;;;;;;;1.90;1.70;;;10.20;99.90;;;;;;5022797;28;20493;-71
2022/11/17 04:59:01;;;;;;;2.03;1.70;;;10.30;99.90;;;;;;5031737;28;20967;-72
2022/11/17 05:01:28;;;;;;;1.47;1.37;;;10.30;99.90;;;;;;5036404;28;20499;-72
2022/11/17 05:03:55;;;;;;;4.10;2.10;;;10.30;99.90;;;;;;5047430;28;20235;-72
2022/11/17 05:06:28;;;;;;;2.20;1.90;;;10.30;99.90;;;;;;5028223;28;20558;-71
2022/11/17 05:08:55;;;;;;;1.50;1.40;;;10.30;99.90;;;;;;5029859;28;20934;-71
2022/11/17 05:14:07;;;;;;;1.40;1.20;;;10.30;99.90;;;;;;5031724;28;20529;-71
2022/11/17 05:19:20;;;;;;;2.43;2.07;;;10.30;99.90;;;;;;5030609;28;20221;-72
2022/11/17 05:21:46;;;;;;;2.13;1.70;;;10.30;99.90;;;;;;5032205;28;20460;-71
2022/11/17 05:24:13;;;;;;;2.10;1.80;;;10.30;99.90;;;;;;5030305;28;21147;-72
2022/11/17 05:26:40;;;;;;;4.70;2.20;;;10.30;99.90;;;;;;5033018;28;20455;-71
2022/11/17 05:29:07;;;;;;;5.97;2.10;;;10.30;99.90;;;;;;5029849;28;20459;-71
2022/11/17 05:31:33;;;;;;;1.67;1.57;;;10.40;99.90;;;;;;5032405;28;20459;-71
2022/11/17 05:33:59;;;;;;;5.33;2.17;;;10.40;99.90;;;;;;5031507;28;21742;-72
2022/11/17 05:36:27;;;;;;;2.80;1.80;;;10.40;99.90;;;;;;5030391;28;20472;-71
2022/11/17 05:38:53;;;;;;;2.30;2.10;;;10.40;99.90;;;;;;5034271;28;20463;-71
2022/11/17 05:41:19;;;;;;;2.47;2.27;;;10.40;99.90;;;;;;5030274;28;20566;-72
2022/11/17 05:43:45;;;;;;;5.13;2.40;;;10.40;99.90;;;;;;5029292;28;20550;-71
2022/11/17 05:46:12;;;;;;;4.30;1.83;;;10.40;99.90;;;;;;5030773;28;20220;-72
2022/11/17 05:48:38;;;;;;;2.70;2.10;;;10.40;99.90;;;;;;5032047;28;20463;-71
2022/11/17 05:51:04;;;;;;;3.13;2.03;;;10.40;99.90;;;;;;5028402;28;20505;-72
2022/11/17 05:53:31;;;;;;;2.37;2.17;;;10.40;99.90;;;;;;5031349;28;20506;-72
2022/11/17 05:56:20;;;;;;;3.53;2.07;;;10.30;99.90;;;;;;5031116;28;20498;-70
2022/11/17 05:58:51;;;;;;;4.03;2.10;;;10.30;99.90;;;;;;5029727;28;20450;-72
2022/11/17 06:01:19;;;;;;;3.00;2.47;;;10.30;99.90;;;;;;5027309;28;20503;-72
2022/11/17 06:03:51;;;;;;;5.07;3.10;;;10.30;99.90;;;;;;5029771;28;20514;-71
2022/11/17 06:06:17;;;;;;;2.30;2.10;;;10.30;99.90;;;;;;5045593;28;20534;-71
2022/11/17 06:08:42;;;;;;;2.67;1.97;;;10.30;99.90;;;;;;5032362;28;20538;-71
2022/11/17 06:11:08;;;;;;;5.27;2.40;;;10.30;99.90;;;;;;5011750;28;20228;-71
2022/11/17 06:13:34;;;;;;;2.53;2.33;;;10.30;99.90;;;;;;5032091;28;20225;-72
2022/11/17 06:16:03;;;;;;;2.50;2.17;;;10.30;99.90;;;;;;5034371;28;20382;-72
2022/11/17 06:18:34;;;;;;;2.30;2.10;;;10.30;99.90;;;;;;5031027;28;20240;-73
2022/11/17 06:21:00;;;;;;;2.07;1.80;;;10.30;99.90;;;;;;5029347;28;20455;-71
2022/11/17 06:23:29;;;;;;;2.97;2.17;;;10.30;99.90;;;;;;5034978;28;20476;-71
2022/11/17 06:25:57;;;;;;;3.30;2.27;;;10.30;99.90;;;;;;5037203;28;20460;-71
2022/11/17 06:28:23;;;;;;;4.00;2.00;;;10.30;99.90;;;;;;5029934;28;20813;-73
2022/11/17 06:30:49;;;;;;;2.00;1.80;;;10.30;99.90;;;;;;5003752;28;20523;-71
2022/11/17 06:33:16;;;;;;;2.30;1.83;;;10.30;99.90;;;;;;5038716;28;20470;-72
2022/11/17 06:35:44;;;;;;;2.43;1.70;;;10.30;99.90;;;;;;5029212;28;20303;-72
2022/11/17 06:38:09;;;;;;;3.77;2.10;;;10.30;99.90;;;;;;5051532;28;20455;-72
2022/11/17 06:40:35;;;;;;;2.50;2.27;;;10.30;99.90;;;;;;5055954;28;20508;-70
2022/11/17 06:43:07;;;;;;;2.07;1.77;;;10.30;99.90;;;;;;5036881;28;20230;-72
2022/11/17 06:45:55;;;;;;;2.73;1.97;;;10.30;99.90;;;;;;5037532;28;20220;-72
2022/11/17 06:48:26;;;;;;;4.10;2.03;;;10.30;99.90;;;;;;5041676;28;20451;-71
2022/11/17 06:50:53;;;;;;;4.20;2.23;;;10.30;99.90;;;;;;5045770;28;20467;-72
2022/11/17 06:53:21;;;;;;;1.60;1.50;;;10.30;99.90;;;;;;5050577;28;20443;-71
2022/11/17 06:55:50;;;;;;;2.23;2.00;;;10.30;99.90;;;;;;5047406;28;20455;-71
2022/11/17 06:58:16;;;;;;;4.10;1.43;;;10.30;99.90;;;;;;5038099;28;20841;-72
2022/11/17 07:00:42;;;;;;;4.70;1.63;;;10.30;99.90;;;;;;5027745;28;20537;-73
2022/11/17 07:03:09;;;;;;;1.40;1.30;;;10.30;99.90;;;;;;5027950;28;20277;-72
2022/11/17 07:05:37;;;;;;;1.53;1.43;;;10.30;99.90;;;;;;5027990;28;20570;-72
2022/11/17 07:08:05;;;;;;;2.70;1.70;;;10.30;99.90;;;;;;5029582;28;20451;-72
2022/11/17 07:10:32;;;;;;;2.00;1.60;;;10.30;99.90;;;;;;5040450;28;20555;-72
2022/11/17 07:12:58;;;;;;;2.50;1.43;;;10.30;99.90;;;;;;5014578;28;20467;-71
2022/11/17 07:15:24;;;;;;;3.40;1.40;;;10.30;99.90;;;;;;5014503;28;20939;-72
2022/11/17 07:17:50;;;;;;;1.33;1.23;;;10.30;99.90;;;;;;5055769;28;20693;-71
2022/11/17 07:20:16;;;;;;;3.13;1.43;;;10.30;99.90;;;;;;5048799;28;20520;-72
2022/11/17 07:22:43;;;;;;;3.90;1.90;;;10.30;99.90;;;;;;5034287;28;20307;-74
2022/11/17 07:25:10;;;;;;;0.93;0.80;;;10.30;99.90;;;;;;5018508;28;20593;-72
2022/11/17 07:27:36;;;;;;;0.97;0.93;;;10.30;99.90;;;;;;5032370;28;20454;-72
2022/11/17 07:30:04;;;;;;;1.23;1.13;;;10.30;99.90;;;;;;5046143;28;20451;-73
2022/11/17 07:32:32;;;;;;;2.83;1.13;;;10.30;99.90;;;;;;5019394;28;20225;-72
2022/11/17 07:34:58;;;;;;;3.80;1.27;;;10.30;99.90;;;;;;5032011;28;20625;-72
2022/11/17 07:37:24;;;;;;;3.10;1.27;;;10.40;99.90;;;;;;5047011;28;21088;-72
2022/11/17 07:39:50;;;;;;;1.57;1.13;;;10.40;99.90;;;;;;5056204;28;20487;-72
2022/11/17 07:42:15;;;;;;;3.30;1.20;;;10.40;99.90;;;;;;5039975;28;20262;-72
2022/11/17 07:44:42;;;;;;;5.53;1.60;;;10.40;99.90;;;;;;5027465;28;20231;-72
2022/11/17 07:47:08;;;;;;;1.87;1.10;;;10.40;99.90;;;;;;5025565;28;20458;-73
2022/11/17 07:49:34;;;;;;;1.80;1.70;;;10.40;99.90;;;;;;5010690;28;20234;-72
2022/11/17 07:51:59;;;;;;;5.77;1.20;;;10.40;99.90;;;;;;5038737;28;20234;-72
2022/11/17 07:54:25;;;;;;;4.13;0.93;;;10.50;99.90;;;;;;5028545;28;20259;-72
2022/11/17 07:56:51;;;;;;;1.87;1.33;;;10.50;99.90;;;;;;5027367;28;20216;-73
2022/11/17 07:59:16;;;;;;;8.93;1.50;;;10.50;99.90;;;;;;5054234;28;20224;-72
2022/11/17 08:01:42;;;;;;;2.40;1.10;;;10.50;99.90;;;;;;5027222;28;20225;-72
2022/11/17 08:04:08;;;;;;;9.43;1.40;;;10.60;99.90;;;;;;5030950;28;20315;-72
2022/11/17 08:06:35;;;;;;;1.63;1.10;;;10.60;99.90;;;;;;5044765;28;20218;-72
2022/11/17 08:09:00;;;;;;;2.50;1.20;;;10.60;99.90;;;;;;5027938;28;20243;-72
2022/11/17 08:11:26;;;;;;;1.77;1.33;;;10.60;99.90;;;;;;5034739;28;20461;-72
2022/11/17 08:13:52;;;;;;;6.83;1.50;;;10.60;99.90;;;;;;5026879;28;20217;-73
2022/11/17 08:16:18;;;;;;;0.90;0.80;;;10.60;99.90;;;;;;5038681;28;20232;-72
2022/11/17 08:18:43;;;;;;;1.53;1.40;;;10.70;99.90;;;;;;5018477;28;20217;-72
2022/11/17 08:21:15;;;;;;;5.90;1.57;;;10.70;99.90;;;;;;5055247;28;20221;-73
2022/11/17 08:23:41;;;;;;;5.53;1.20;;;10.70;99.90;;;;;;5030513;28;20298;-72
2022/11/17 08:26:09;;;;;;;4.50;1.30;;;10.70;99.90;;;;;;5013700;28;20546;-72
2022/11/17 08:28:35;;;;;;;2.60;1.10;;;10.70;99.90;;;;;;5018522;28;20805;-72
2022/11/17 08:31:05;;;;;;;4.17;1.10;;;10.80;99.90;;;;;;5034028;28;20463;-72
2022/11/17 08:33:32;;;;;;;5.20;1.63;;;10.80;99.90;;;;;;5023640;28;20600;-72
2022/11/17 08:35:59;;;;;;;4.60;1.60;;;10.80;99.90;;;;;;5039072;28;20466;-73
2022/11/17 08:38:28;;;;;;;4.07;2.87;;;10.80;99.90;;;;;;5048737;28;20467;-72
2022/11/17 08:40:57;;;;;;;5.20;3.97;;;10.90;99.90;;;;;;5013240;28;20456;-72
2022/11/17 08:43:23;;;;;;;3.17;1.90;;;10.90;99.90;;;;;;5039966;28;20451;-72
2022/11/17 08:45:49;;;;;;;4.47;2.50;;;10.90;99.90;;;;;;5061777;28;20584;-72
2022/11/17 08:48:15;;;;;;;5.83;2.60;;;10.90;99.90;;;;;;5055846;28;20546;-72
2022/11/17 08:50:41;;;;;;;2.00;1.90;;;11.00;99.90;;;;;;5032949;28;20227;-71
2022/11/17 08:53:15;;;;;;;4.10;1.60;;;11.00;99.90;;;;;;5057415;28;20277;-72
2022/11/17 08:55:40;;;;;;;49.27;22.77;;;11.10;99.90;;;;;;5039072;28;20242;-72
2022/11/17 08:58:06;;;;;;;60.77;30.73;;;11.20;99.90;;;;;;5026043;28;20972;-72
2022/11/17 09:00:32;;;;;;;28.63;16.67;;;11.30;99.90;;;;;;5042678;28;20462;-71
2022/11/17 09:02:58;;;;;;;16.63;8.00;;;11.40;99.90;;;;;;5049179;28;20227;-73
2022/11/17 09:05:23;;;;;;;16.33;7.17;;;11.40;99.90;;;;;;5035341;28;20233;-73
2022/11/17 09:07:50;;;;;;;6.70;3.80;;;11.40;99.90;;;;;;5029234;28;20233;-70
2022/11/17 09:10:16;;;;;;;8.17;4.00;;;11.50;99.90;;;;;;5029702;28;20265;-72
2022/11/17 09:12:42;;;;;;;6.63;2.93;;;11.50;99.90;;;;;;5028919;28;20467;-74
2022/11/17 09:15:08;;;;;;;5.70;1.77;;;11.50;99.90;;;;;;5037508;28;20224;-72
2022/11/17 09:17:34;;;;;;;2.87;1.13;;;11.60;99.90;;;;;;5050897;28;20471;-72
2022/11/17 09:20:00;;;;;;;4.57;1.30;;;11.60;99.90;;;;;;5035712;28;20486;-73
2022/11/17 09:22:26;;;;;;;3.23;1.50;;;11.60;99.90;;;;;;5031807;28;20459;-73
2022/11/17 09:24:51;;;;;;;4.13;1.50;;;11.70;99.90;;;;;;5030955;28;20454;-73
2022/11/17 09:27:17;;;;;;;8.13;1.30;;;11.70;99.90;;;;;;5036291;28;20247;-73
2022/11/17 09:29:43;;;;;;;3.07;1.30;;;11.70;99.90;;;;;;5031597;28;20694;-73
2022/11/17 09:32:08;;;;;;;5.53;2.10;;;11.70;99.90;;;;;;5030359;28;20225;-73
2022/11/17 09:34:34;;;;;;;2.50;1.40;;;11.70;99.90;;;;;;5044431;28;20250;-72
2022/11/17 09:37:00;;;;;;;4.47;1.47;;;11.70;99.90;;;;;;5032081;28;20721;-73
2022/11/17 09:39:25;;;;;;;2.87;1.70;;;11.70;99.90;;;;;;5012162;28;20224;-73
2022/11/17 09:41:53;;;;;;;8.10;4.73;;;11.70;99.90;;;;;;5037517;28;20311;-72
2022/11/17 09:44:57;;;;;;;7.47;5.80;;;11.70;99.90;;;;;;5043133;28;20216;-72
2022/11/17 09:47:46;;;;;;;2.80;2.00;;;11.70;99.90;;;;;;5008673;28;21023;-73
2022/11/17 09:50:35;;;;;;;4.70;2.00;;;11.70;99.90;;;;;;5033379;28;20458;-72
2022/11/17 09:53:28;;;;;;;3.83;1.57;;;11.70;99.90;;;;;;5023294;28;20438;-73
2022/11/17 09:56:00;;;;;;;4.80;2.03;;;11.60;99.90;;;;;;5029604;28;20447;-72
2022/11/17 09:58:31;;;;;;;2.40;1.87;;;11.60;99.90;;;;;;5024245;28;20473;-72
2022/11/17 10:00:57;;;;;;;5.70;3.03;;;11.60;99.90;;;;;;5022772;28;20446;-72
2022/11/17 10:03:29;;;;;;;6.07;4.40;;;11.60;99.90;;;;;;5033741;28;20459;-72
2022/11/17 10:05:57;;;;;;;6.63;3.30;;;11.60;99.90;;;;;;5036237;28;20906;-72
2022/11/17 10:08:47;;;;;;;4.50;2.23;;;11.60;99.90;;;;;;5013484;28;20466;-73
2022/11/17 10:11:30;;;;;;;4.00;1.70;;;11.60;99.90;;;;;;5031359;28;20537;-73
2022/11/17 10:14:20;;;;;;;3.20;2.10;;;11.60;99.90;;;;;;5032482;28;20452;-73
2022/11/17 10:16:55;;;;;;;5.97;2.47;;;11.70;99.90;;;;;;5043739;28;20994;-72
2022/11/17 10:19:23;;;;;;;2.20;2.00;;;11.70;99.90;;;;;;5028917;28;20975;-73
2022/11/17 10:22:22;;;;;;;5.87;2.37;;;11.70;99.90;;;;;;5022787;28;20861;-73
2022/11/17 10:24:50;;;;;;;3.43;2.23;;;11.70;99.90;;;;;;5026722;28;21001;-72
2022/11/17 10:27:35;;;;;;;7.43;1.97;;;11.80;99.90;;;;;;5028448;28;20824;-73
2022/11/17 10:30:06;;;;;;;11.20;2.50;;;11.80;99.90;;;;;;5032227;28;20979;-72
2022/11/17 10:32:45;;;;;;;11.97;2.70;;;11.80;99.90;;;;;;5032403;28;20480;-72
2022/11/17 10:35:13;;;;;;;5.60;1.77;;;11.90;99.90;;;;;;5023418;28;20518;-73
2022/11/17 10:37:50;;;;;;;10.70;1.57;;;11.90;99.90;;;;;;5034722;28;20526;-73
2022/11/17 10:40:21;;;;;;;3.47;1.03;;;11.90;99.90;;;;;;5046993;28;20906;-73
2022/11/17 10:43:11;;;;;;;2.97;1.97;;;11.90;99.90;;;;;;5045984;28;20464;-72
2022/11/17 10:45:46;;;;;;;3.43;1.30;;;11.90;99.90;;;;;;5032318;28;21038;-73
2022/11/17 10:48:30;;;;;;;5.10;1.90;;;12.00;99.90;;;;;;5044743;28;20509;-72
2022/11/17 10:51:02;;;;;;;8.60;1.40;;;11.90;99.90;;;;;;5032651;28;20459;-73
2022/11/17 10:53:30;;;;;;;2.73;0.97;;;11.90;99.90;;;;;;5033255;28;20458;-73
2022/11/17 10:56:03;;;;;;;20.93;12.77;;;12.00;99.90;;;;;;5018076;28;20451;-73
2022/11/17 10:58:31;;;;;;;14.40;9.63;;;12.00;99.90;;;;;;5044347;28;20459;-73
2022/11/17 11:01:00;;;;;;;19.20;12.13;;;12.00;99.90;;;;;;5039426;28;20453;-73
2022/11/17 11:03:33;;;;;;;12.33;6.23;;;12.00;99.90;;;;;;5031455;28;20483;-72
2022/11/17 11:06:20;;;;;;;13.17;8.20;;;12.00;99.90;;;;;;5057380;28;20513;-72
2022/11/17 11:09:03;;;;;;;12.30;8.70;;;12.00;99.90;;;;;;5028673;28;20463;-72
2022/11/17 11:11:28;;;;;;;6.70;4.97;;;12.00;99.90;;;;;;5046573;28;20532;-73
2022/11/17 11:13:59;;;;;;;4.33;3.93;;;11.90;99.90;;;;;;5034749;28;20571;-73
2022/11/17 11:16:27;;;;;;;2.37;2.17;;;11.90;99.90;;;;;;5032035;28;20580;-73
2022/11/17 11:18:53;;;;;;;2.70;1.37;;;12.00;99.90;;;;;;5042944;28;20451;-73
2022/11/17 11:21:25;;;;;;;1.77;1.13;;;11.90;99.90;;;;;;5017767;28;20448;-73
2022/11/17 11:23:59;;;;;;;4.73;1.37;;;11.90;99.90;;;;;;5036618;28;20478;-73
2022/11/17 11:26:46;;;;;;;1.50;1.20;;;11.90;99.90;;;;;;5014633;28;20470;-73
2022/11/17 11:29:14;;;;;;;1.37;1.23;;;11.90;99.90;;;;;;5031709;28;20462;-73
2022/11/17 11:32:08;;;;;;;1.50;1.27;;;11.90;99.90;;;;;;5029811;28;20463;-73
2022/11/17 11:34:55;;;;;;;6.83;1.57;;;11.90;99.90;;;;;;5029350;28;20478;-73
2022/11/17 11:37:30;;;;;;;2.57;1.17;;;11.90;99.90;;;;;;5046539;28;20511;-72
2022/11/17 11:40:20;;;;;;;8.43;1.30;;;11.90;99.90;;;;;;5032941;28;20964;-72
2022/11/17 11:43:00;;;;;;;1.43;1.20;;;12.00;99.90;;;;;;5039449;28;20459;-72
2022/11/17 11:45:44;;;;;;;1.50;1.27;;;12.00;99.90;;;;;;5033890;28;20464;-73
2022/11/17 11:48:21;;;;;;;2.80;1.43;;;12.00;99.90;;;;;;5046405;28;20458;-73
2022/11/17 11:51:08;;;;;;;4.23;1.43;;;12.00;99.90;;;;;;5030402;28;20447;-73
2022/11/17 11:54:02;;;;;;;3.77;1.00;;;12.00;99.90;;;;;;5020810;28;20894;-72
2022/11/17 11:56:41;;;;;;;2.67;1.83;;;12.10;99.90;;;;;;5034694;28;20483;-73
2022/11/17 11:59:14;;;;;;;2.87;1.50;;;12.10;99.90;;;;;;5019914;28;20460;-72
2022/11/17 12:02:05;;;;;;;1.70;1.60;;;12.10;99.90;;;;;;5029826;28;20459;-72
2022/11/17 12:04:58;;;;;;;5.40;2.10;;;12.10;99.90;;;;;;5032213;28;20454;-72
2022/11/17 12:07:36;;;;;;;4.17;1.43;;;12.10;99.90;;;;;;5040937;28;21110;-72
2022/11/17 12:10:18;;;;;;;1.10;1.00;;;12.10;99.90;;;;;;5057890;28;20449;-72
2022/11/17 12:12:45;;;;;;;3.00;2.07;;;12.10;99.90;;;;;;5033535;28;20470;-72
2022/11/17 12:15:30;;;;;;;17.70;10.60;;;12.10;99.90;;;;;;5037565;28;20489;-73
2022/11/17 12:17:59;;;;;;;9.13;5.77;;;12.20;99.90;;;;;;5050478;28;20466;-73
2022/11/17 12:20:37;;;;;;;4.73;1.60;;;12.20;99.90;;;;;;5044630;28;20451;-72
2022/11/17 12:23:27;;;;;;;8.23;2.20;;;12.20;99.90;;;;;;5030135;28;20447;-72
2022/11/17 12:25:58;;;;;;;4.83;2.43;;;12.20;99.90;;;;;;5052267;28;20463;-71
2022/11/17 12:28:33;;;;;;;3.20;0.97;;;12.30;99.90;;;;;;5022045;28;20902;-72
2022/11/17 12:31:11;;;;;;;2.93;0.93;;;12.30;99.90;;;;;;5037885;28;20825;-73
2022/11/17 12:33:52;;;;;;;2.40;0.80;;;12.30;99.90;;;;;;5047618;28;20456;-73
2022/11/17 12:36:27;;;;;;;1.00;0.90;;;12.30;99.90;;;;;;5031034;28;20497;-72
2022/11/17 12:38:56;;;;;;;4.30;1.13;;;12.40;99.90;;;;;;5035044;28;21022;-72
2022/11/17 12:41:47;;;;;;;1.50;1.17;;;12.40;99.90;;;;;;5024007;28;20460;-72
2022/11/17 12:44:37;;;;;;;2.53;0.90;;;12.40;99.90;;;;;;5029998;28;20443;-72
2022/11/17 12:47:11;;;;;;;3.27;1.33;;;12.50;99.90;;;;;;5053922;28;20488;-71
2022/11/17 12:50:10;;;;;;;0.93;0.87;;;12.50;99.90;;;;;;5037995;28;20962;-73
2022/11/17 12:52:42;;;;;;;2.10;1.00;;;12.60;99.90;;;;;;5029713;28;20439;-72
2022/11/17 12:55:45;;;;;;;4.47;1.00;;;12.60;99.90;;;;;;5036358;28;20455;-72
2022/11/17 12:58:18;;;;;;;2.07;0.90;;;12.50;99.90;;;;;;5045646;28;20553;-73
2022/11/17 13:00:53;;;;;;;1.20;1.10;;;12.50;99.90;;;;;;5045727;28;20454;-73
2022/11/17 13:03:36;;;;;;;2.60;1.37;;;12.50;99.90;;;;;;5032139;28;20542;-72
2022/11/17 13:06:06;;;;;;;1.40;1.30;;;12.50;99.90;;;;;;5038395;28;20486;-73
2022/11/17 13:08:32;;;;;;;1.97;1.20;;;12.50;99.90;;;;;;5047533;28;20459;-71
2022/11/17 13:11:10;;;;;;;5.60;1.27;;;12.50;99.90;;;;;;5019015;28;20459;-73
2022/11/17 13:13:36;;;;;;;1.40;1.10;;;12.40;99.90;;;;;;5036443;28;20231;-72
2022/11/17 13:16:03;;;;;;;4.63;1.47;;;12.40;99.90;;;;;;5033594;28;20455;-71
2022/11/17 13:18:40;;;;;;;2.30;1.07;;;12.50;99.90;;;;;;5035205;28;20224;-73
2022/11/17 13:21:24;;;;;;;3.80;1.17;;;12.50;99.90;;;;;;5055278;28;20474;-73
2022/11/17 13:23:51;;;;;;;1.07;0.97;;;12.60;99.90;;;;;;5038142;28;20538;-73
2022/11/17 13:26:20;;;;;;;1.50;1.17;;;12.60;99.90;;;;;;5033161;28;20467;-73
2022/11/17 13:28:46;;;;;;;1.43;1.00;;;12.60;99.90;;;;;;5032453;28;20459;-72
2022/11/17 13:31:24;;;;;;;4.63;1.03;;;12.60;99.90;;;;;;5017184;28;20534;-73
2022/11/17 13:34:04;;;;;;;5.80;2.40;;;12.60;99.90;;;;;;5022679;28;20452;-72
2022/11/17 13:36:31;;;;;;;11.50;7.87;;;12.60;99.90;;;;;;5025699;28;21008;-73